sensor_id;sensor_type;location;lat;lon;timestamp;P1;durP1;ratioP1;P2;durP2;ratioP2
32946;SDS011;54465;51.230;22.504;2023-02-23T00:04:25;9.10;;;6.35;;
32946;SDS011;54465;51.230;22.504;2023-02-23T00:09:26;11.55;;;7.03;;
32946;SDS011;54465;51.230;22.504;2023-02-23T00:14:34;11.00;;;6.43;;
32946;SDS011;54465;51.230;22.504;2023-02-23T00:19:36;8.07;;;5.35;;
32946;SDS011;54465;51.230;22.504;2023-02-23T00:24:37;8.10;;;5.05;;
32946;SDS011;54465;51.230;22.504;2023-02-23T00:29:37;10.32;;;5.18;;
32946;SDS011;54465;51.230;22.504;2023-02-23T00:34:39;13.73;;;5.13;;
32946;SDS011;54465;51.230;22.504;2023-02-23T00:39:40;7.80;;;3.85;;
32946;SDS011;54465;51.230;22.504;2023-02-23T00:44:41;8.02;;;4.68;;
32946;SDS011;54465;51.230;22.504;2023-02-23T00:49:43;8.48;;;3.63;;
32946;SDS011;54465;51.230;22.504;2023-02-23T00:54:44;7.30;;;3.05;;
32946;SDS011;54465;51.230;22.504;2023-02-23T00:59:44;4.72;;;2.80;;
32946;SDS011;54465;51.230;22.504;2023-02-23T01:04:45;4.80;;;2.35;;
32946;SDS011;54465;51.230;22.504;2023-02-23T01:09:45;4.32;;;2.58;;
32946;SDS011;54465;51.230;22.504;2023-02-23T01:14:46;4.72;;;2.38;;
32946;SDS011;54465;51.230;22.504;2023-02-23T01:19:46;5.10;;;2.35;;
32946;SDS011;54465;51.230;22.504;2023-02-23T01:24:47;4.43;;;2.85;;
32946;SDS011;54465;51.230;22.504;2023-02-23T01:29:47;6.03;;;3.30;;
32946;SDS011;54465;51.230;22.504;2023-02-23T01:34:48;4.20;;;2.67;;
32946;SDS011;54465;51.230;22.504;2023-02-23T01:39:48;5.10;;;2.60;;
32946;SDS011;54465;51.230;22.504;2023-02-23T01:49:52;4.93;;;2.58;;
32946;SDS011;54465;51.230;22.504;2023-02-23T01:54:52;3.85;;;2.20;;
32946;SDS011;54465;51.230;22.504;2023-02-23T01:59:54;4.45;;;2.38;;
32946;SDS011;54465;51.230;22.504;2023-02-23T02:04:56;4.47;;;2.55;;
32946;SDS011;54465;51.230;22.504;2023-02-23T02:10:01;4.97;;;2.72;;
32946;SDS011;54465;51.230;22.504;2023-02-23T02:15:11;6.85;;;3.10;;
32946;SDS011;54465;51.230;22.504;2023-02-23T02:25:35;5.78;;;3.00;;
32946;SDS011;54465;51.230;22.504;2023-02-23T02:36:09;5.63;;;2.75;;
32946;SDS011;54465;51.230;22.504;2023-02-23T02:41:52;5.53;;;2.88;;
32946;SDS011;54465;51.230;22.504;2023-02-23T02:46:57;4.50;;;2.83;;
32946;SDS011;54465;51.230;22.504;2023-02-23T02:52:11;4.43;;;2.85;;
32946;SDS011;54465;51.230;22.504;2023-02-23T02:57:18;5.70;;;2.33;;
32946;SDS011;54465;51.230;22.504;2023-02-23T03:02:23;6.80;;;3.17;;
32946;SDS011;54465;51.230;22.504;2023-02-23T03:18:58;3.97;;;2.75;;
32946;SDS011;54465;51.230;22.504;2023-02-23T03:24:39;4.72;;;2.95;;
32946;SDS011;54465;51.230;22.504;2023-02-23T03:35:33;4.40;;;2.80;;
32946;SDS011;54465;51.230;22.504;2023-02-23T03:46:25;4.45;;;2.63;;
32946;SDS011;54465;51.230;22.504;2023-02-23T03:51:45;4.47;;;2.60;;
32946;SDS011;54465;51.230;22.504;2023-02-23T03:57:07;4.57;;;2.75;;
32946;SDS011;54465;51.230;22.504;2023-02-23T04:02:28;6.30;;;3.28;;
32946;SDS011;54465;51.230;22.504;2023-02-23T04:07:48;3.35;;;2.53;;
32946;SDS011;54465;51.230;22.504;2023-02-23T04:13:11;5.75;;;2.90;;
32946;SDS011;54465;51.230;22.504;2023-02-23T04:18:21;7.55;;;3.60;;
32946;SDS011;54465;51.230;22.504;2023-02-23T04:23:23;5.25;;;3.35;;
32946;SDS011;54465;51.230;22.504;2023-02-23T04:28:25;6.13;;;3.17;;
32946;SDS011;54465;51.230;22.504;2023-02-23T04:33:26;5.30;;;3.08;;
32946;SDS011;54465;51.230;22.504;2023-02-23T04:38:26;6.15;;;3.65;;
32946;SDS011;54465;51.230;22.504;2023-02-23T04:43:27;6.40;;;3.83;;
32946;SDS011;54465;51.230;22.504;2023-02-23T04:48:28;6.10;;;3.38;;
32946;SDS011;54465;51.230;22.504;2023-02-23T04:53:28;7.07;;;3.70;;
32946;SDS011;54465;51.230;22.504;2023-02-23T04:58:29;6.15;;;3.33;;
32946;SDS011;54465;51.230;22.504;2023-02-23T05:03:29;4.95;;;3.38;;
32946;SDS011;54465;51.230;22.504;2023-02-23T05:08:30;4.70;;;3.10;;
32946;SDS011;54465;51.230;22.504;2023-02-23T05:13:30;5.82;;;2.83;;
32946;SDS011;54465;51.230;22.504;2023-02-23T05:18:31;5.13;;;2.83;;
32946;SDS011;54465;51.230;22.504;2023-02-23T05:23:32;7.80;;;3.00;;
32946;SDS011;54465;51.230;22.504;2023-02-23T05:28:34;5.88;;;3.47;;
32946;SDS011;54465;51.230;22.504;2023-02-23T05:33:36;4.30;;;2.85;;
32946;SDS011;54465;51.230;22.504;2023-02-23T05:38:42;3.80;;;2.42;;
32946;SDS011;54465;51.230;22.504;2023-02-23T05:43:43;4.75;;;2.25;;
32946;SDS011;54465;51.230;22.504;2023-02-23T05:48:43;4.57;;;2.35;;
32946;SDS011;54465;51.230;22.504;2023-02-23T05:53:44;4.10;;;2.40;;
32946;SDS011;54465;51.230;22.504;2023-02-23T05:58:46;3.60;;;2.00;;
32946;SDS011;54465;51.230;22.504;2023-02-23T06:03:47;3.60;;;2.30;;
32946;SDS011;54465;51.230;22.504;2023-02-23T06:08:48;2.70;;;1.88;;
32946;SDS011;54465;51.230;22.504;2023-02-23T06:13:49;3.17;;;1.85;;
32946;SDS011;54465;51.230;22.504;2023-02-23T06:18:50;4.15;;;2.00;;
32946;SDS011;54465;51.230;22.504;2023-02-23T06:23:51;2.33;;;1.60;;
32946;SDS011;54465;51.230;22.504;2023-02-23T06:28:52;3.20;;;1.90;;
32946;SDS011;54465;51.230;22.504;2023-02-23T06:33:53;5.32;;;2.45;;
32946;SDS011;54465;51.230;22.504;2023-02-23T06:38:56;3.88;;;2.03;;
32946;SDS011;54465;51.230;22.504;2023-02-23T06:43:57;3.38;;;2.53;;
32946;SDS011;54465;51.230;22.504;2023-02-23T06:48:58;3.30;;;1.92;;
32946;SDS011;54465;51.230;22.504;2023-02-23T06:53:58;5.82;;;1.92;;
32946;SDS011;54465;51.230;22.504;2023-02-23T06:58:59;5.45;;;2.95;;
32946;SDS011;54465;51.230;22.504;2023-02-23T07:03:59;4.75;;;2.15;;
32946;SDS011;54465;51.230;22.504;2023-02-23T07:09:00;4.28;;;2.15;;
32946;SDS011;54465;51.230;22.504;2023-02-23T07:14:01;3.70;;;2.22;;
32946;SDS011;54465;51.230;22.504;2023-02-23T07:19:01;3.97;;;2.60;;
32946;SDS011;54465;51.230;22.504;2023-02-23T07:24:03;6.10;;;2.50;;
32946;SDS011;54465;51.230;22.504;2023-02-23T07:29:05;6.60;;;2.70;;
32946;SDS011;54465;51.230;22.504;2023-02-23T07:34:05;3.90;;;2.05;;
32946;SDS011;54465;51.230;22.504;2023-02-23T07:39:06;4.45;;;2.22;;
32946;SDS011;54465;51.230;22.504;2023-02-23T07:44:07;5.43;;;2.05;;
32946;SDS011;54465;51.230;22.504;2023-02-23T07:49:07;4.75;;;2.20;;
32946;SDS011;54465;51.230;22.504;2023-02-23T07:54:08;3.92;;;2.00;;
32946;SDS011;54465;51.230;22.504;2023-02-23T07:59:09;4.88;;;2.60;;
32946;SDS011;54465;51.230;22.504;2023-02-23T08:04:09;3.35;;;2.08;;
32946;SDS011;54465;51.230;22.504;2023-02-23T08:09:10;3.50;;;2.10;;
32946;SDS011;54465;51.230;22.504;2023-02-23T08:14:11;4.07;;;2.20;;
32946;SDS011;54465;51.230;22.504;2023-02-23T08:19:12;4.10;;;2.53;;
32946;SDS011;54465;51.230;22.504;2023-02-23T08:24:12;3.60;;;2.33;;
32946;SDS011;54465;51.230;22.504;2023-02-23T08:29:13;3.90;;;2.45;;
32946;SDS011;54465;51.230;22.504;2023-02-23T08:34:14;4.78;;;2.28;;
32946;SDS011;54465;51.230;22.504;2023-02-23T08:39:14;5.18;;;2.97;;
32946;SDS011;54465;51.230;22.504;2023-02-23T08:44:15;4.15;;;2.50;;
32946;SDS011;54465;51.230;22.504;2023-02-23T08:49:15;4.30;;;2.30;;
32946;SDS011;54465;51.230;22.504;2023-02-23T08:54:16;3.40;;;2.20;;
32946;SDS011;54465;51.230;22.504;2023-02-23T08:59:17;4.03;;;2.40;;
32946;SDS011;54465;51.230;22.504;2023-02-23T09:04:17;5.05;;;2.90;;
32946;SDS011;54465;51.230;22.504;2023-02-23T09:09:18;4.00;;;2.10;;
32946;SDS011;54465;51.230;22.504;2023-02-23T09:14:18;3.50;;;2.22;;
32946;SDS011;54465;51.230;22.504;2023-02-23T09:19:19;3.40;;;2.10;;
32946;SDS011;54465;51.230;22.504;2023-02-23T09:24:19;3.67;;;2.08;;
32946;SDS011;54465;51.230;22.504;2023-02-23T09:29:20;3.92;;;2.60;;
32946;SDS011;54465;51.230;22.504;2023-02-23T09:34:22;5.20;;;2.20;;
32946;SDS011;54465;51.230;22.504;2023-02-23T09:39:23;4.13;;;2.47;;
32946;SDS011;54465;51.230;22.504;2023-02-23T09:44:36;4.07;;;2.30;;
32946;SDS011;54465;51.230;22.504;2023-02-23T09:49:44;7.18;;;2.67;;
32946;SDS011;54465;51.230;22.504;2023-02-23T09:54:45;3.22;;;2.15;;
32946;SDS011;54465;51.230;22.504;2023-02-23T09:59:46;6.63;;;2.85;;
32946;SDS011;54465;51.230;22.504;2023-02-23T10:04:47;5.57;;;2.70;;
32946;SDS011;54465;51.230;22.504;2023-02-23T10:09:54;4.28;;;2.67;;
32946;SDS011;54465;51.230;22.504;2023-02-23T10:15:06;5.78;;;2.80;;
32946;SDS011;54465;51.230;22.504;2023-02-23T10:25:19;4.93;;;2.80;;
32946;SDS011;54465;51.230;22.504;2023-02-23T10:30:24;3.40;;;2.53;;
32946;SDS011;54465;51.230;22.504;2023-02-23T10:35:26;4.72;;;2.60;;
32946;SDS011;54465;51.230;22.504;2023-02-23T10:40:30;5.35;;;2.92;;
32946;SDS011;54465;51.230;22.504;2023-02-23T10:45:33;3.50;;;2.35;;
32946;SDS011;54465;51.230;22.504;2023-02-23T10:50:36;5.32;;;3.20;;
32946;SDS011;54465;51.230;22.504;2023-02-23T10:55:37;4.68;;;2.65;;
32946;SDS011;54465;51.230;22.504;2023-02-23T11:00:39;4.38;;;2.95;;
32946;SDS011;54465;51.230;22.504;2023-02-23T11:05:43;6.05;;;3.33;;
32946;SDS011;54465;51.230;22.504;2023-02-23T11:21:09;4.57;;;2.88;;
32946;SDS011;54465;51.230;22.504;2023-02-23T11:31:39;4.00;;;3.00;;
32946;SDS011;54465;51.230;22.504;2023-02-23T11:36:47;3.63;;;2.72;;
32946;SDS011;54465;51.230;22.504;2023-02-23T11:47:15;7.75;;;3.67;;
32946;SDS011;54465;51.230;22.504;2023-02-23T11:52:19;7.35;;;3.40;;
32946;SDS011;54465;51.230;22.504;2023-02-23T11:57:28;4.40;;;3.20;;
32946;SDS011;54465;51.230;22.504;2023-02-23T12:02:29;4.70;;;3.20;;
32946;SDS011;54465;51.230;22.504;2023-02-23T12:12:43;6.30;;;3.45;;
32946;SDS011;54465;51.230;22.504;2023-02-23T12:17:59;6.95;;;3.35;;
32946;SDS011;54465;51.230;22.504;2023-02-23T12:23:11;5.18;;;3.33;;
32946;SDS011;54465;51.230;22.504;2023-02-23T12:28:18;4.70;;;3.35;;
32946;SDS011;54465;51.230;22.504;2023-02-23T12:33:26;4.53;;;3.28;;
32946;SDS011;54465;51.230;22.504;2023-02-23T12:38:49;5.28;;;3.30;;
32946;SDS011;54465;51.230;22.504;2023-02-23T12:43:52;5.28;;;3.60;;
32946;SDS011;54465;51.230;22.504;2023-02-23T12:54:13;5.40;;;3.63;;
32946;SDS011;54465;51.230;22.504;2023-02-23T13:10:01;4.60;;;3.45;;
32946;SDS011;54465;51.230;22.504;2023-02-23T13:15:20;7.47;;;3.80;;
32946;SDS011;54465;51.230;22.504;2023-02-23T13:25:28;4.55;;;3.22;;
32946;SDS011;54465;51.230;22.504;2023-02-23T13:30:33;5.57;;;4.60;;
32946;SDS011;54465;51.230;22.504;2023-02-23T13:35:34;6.63;;;4.03;;
32946;SDS011;54465;51.230;22.504;2023-02-23T13:56:41;5.80;;;4.10;;
32946;SDS011;54465;51.230;22.504;2023-02-23T14:01:44;7.70;;;4.28;;
32946;SDS011;54465;51.230;22.504;2023-02-23T14:12:22;6.13;;;3.95;;
32946;SDS011;54465;51.230;22.504;2023-02-23T14:22:27;7.65;;;4.38;;
32946;SDS011;54465;51.230;22.504;2023-02-23T14:27:32;8.68;;;4.40;;
32946;SDS011;54465;51.230;22.504;2023-02-23T14:33:09;5.03;;;4.00;;
32946;SDS011;54465;51.230;22.504;2023-02-23T14:48:39;6.75;;;4.63;;
32946;SDS011;54465;51.230;22.504;2023-02-23T14:53:42;6.85;;;4.82;;
32946;SDS011;54465;51.230;22.504;2023-02-23T14:58:42;6.90;;;5.07;;
32946;SDS011;54465;51.230;22.504;2023-02-23T15:04:06;10.00;;;5.10;;
32946;SDS011;54465;51.230;22.504;2023-02-23T15:09:09;7.95;;;4.72;;
32946;SDS011;54465;51.230;22.504;2023-02-23T15:14:15;8.73;;;5.15;;
32946;SDS011;54465;51.230;22.504;2023-02-23T15:19:17;7.03;;;5.20;;
32946;SDS011;54465;51.230;22.504;2023-02-23T15:24:26;9.52;;;6.60;;
32946;SDS011;54465;51.230;22.504;2023-02-23T15:29:31;7.82;;;6.22;;
32946;SDS011;54465;51.230;22.504;2023-02-23T15:34:32;12.25;;;6.07;;
32946;SDS011;54465;51.230;22.504;2023-02-23T15:39:35;10.07;;;6.20;;
32946;SDS011;54465;51.230;22.504;2023-02-23T15:44:39;8.88;;;6.32;;
32946;SDS011;54465;51.230;22.504;2023-02-23T15:49:40;9.95;;;6.40;;
32946;SDS011;54465;51.230;22.504;2023-02-23T15:54:46;9.82;;;6.45;;
32946;SDS011;54465;51.230;22.504;2023-02-23T15:59:50;10.77;;;6.18;;
32946;SDS011;54465;51.230;22.504;2023-02-23T16:04:53;12.40;;;7.50;;
32946;SDS011;54465;51.230;22.504;2023-02-23T16:10:04;11.25;;;7.43;;
32946;SDS011;54465;51.230;22.504;2023-02-23T16:15:24;11.30;;;7.68;;
32946;SDS011;54465;51.230;22.504;2023-02-23T16:20:28;15.10;;;8.10;;
32946;SDS011;54465;51.230;22.504;2023-02-23T16:25:42;13.13;;;7.83;;
32946;SDS011;54465;51.230;22.504;2023-02-23T16:30:49;14.52;;;8.52;;
32946;SDS011;54465;51.230;22.504;2023-02-23T16:41:12;13.60;;;8.70;;
32946;SDS011;54465;51.230;22.504;2023-02-23T16:46:16;15.63;;;8.95;;
32946;SDS011;54465;51.230;22.504;2023-02-23T16:51:18;14.23;;;8.65;;
32946;SDS011;54465;51.230;22.504;2023-02-23T16:56:20;16.25;;;8.98;;
32946;SDS011;54465;51.230;22.504;2023-02-23T17:01:21;17.20;;;9.40;;
32946;SDS011;54465;51.230;22.504;2023-02-23T17:06:22;15.73;;;9.63;;
32946;SDS011;54465;51.230;22.504;2023-02-23T17:11:22;15.07;;;9.73;;
32946;SDS011;54465;51.230;22.504;2023-02-23T17:16:23;16.38;;;10.38;;
32946;SDS011;54465;51.230;22.504;2023-02-23T17:21:23;17.80;;;11.05;;
32946;SDS011;54465;51.230;22.504;2023-02-23T17:26:24;19.02;;;11.80;;
32946;SDS011;54465;51.230;22.504;2023-02-23T17:31:25;25.05;;;13.07;;
32946;SDS011;54465;51.230;22.504;2023-02-23T17:36:25;25.38;;;12.57;;
32946;SDS011;54465;51.230;22.504;2023-02-23T17:41:26;20.58;;;12.32;;
32946;SDS011;54465;51.230;22.504;2023-02-23T17:46:27;23.20;;;13.52;;
32946;SDS011;54465;51.230;22.504;2023-02-23T17:51:27;26.00;;;13.00;;
32946;SDS011;54465;51.230;22.504;2023-02-23T17:56:28;21.05;;;13.35;;
32946;SDS011;54465;51.230;22.504;2023-02-23T18:01:30;21.40;;;12.55;;
32946;SDS011;54465;51.230;22.504;2023-02-23T18:06:30;19.83;;;10.80;;
32946;SDS011;54465;51.230;22.504;2023-02-23T18:11:31;17.73;;;10.10;;
32946;SDS011;54465;51.230;22.504;2023-02-23T18:16:33;19.65;;;10.13;;
32946;SDS011;54465;51.230;22.504;2023-02-23T18:21:33;18.92;;;10.35;;
32946;SDS011;54465;51.230;22.504;2023-02-23T18:26:38;13.98;;;9.23;;
32946;SDS011;54465;51.230;22.504;2023-02-23T18:31:39;14.20;;;8.18;;
32946;SDS011;54465;51.230;22.504;2023-02-23T18:36:40;13.68;;;8.48;;
32946;SDS011;54465;51.230;22.504;2023-02-23T18:41:41;14.88;;;7.88;;
32946;SDS011;54465;51.230;22.504;2023-02-23T18:46:42;13.27;;;8.13;;
32946;SDS011;54465;51.230;22.504;2023-02-23T18:51:44;13.32;;;7.25;;
32946;SDS011;54465;51.230;22.504;2023-02-23T18:56:45;12.38;;;7.25;;
32946;SDS011;54465;51.230;22.504;2023-02-23T19:01:46;14.63;;;7.72;;
32946;SDS011;54465;51.230;22.504;2023-02-23T19:06:48;15.00;;;7.25;;
32946;SDS011;54465;51.230;22.504;2023-02-23T19:11:48;13.38;;;7.05;;
32946;SDS011;54465;51.230;22.504;2023-02-23T19:16:50;16.75;;;8.25;;
32946;SDS011;54465;51.230;22.504;2023-02-23T19:21:50;16.38;;;8.98;;
32946;SDS011;54465;51.230;22.504;2023-02-23T19:26:51;17.25;;;9.60;;
32946;SDS011;54465;51.230;22.504;2023-02-23T19:31:51;17.35;;;8.48;;
32946;SDS011;54465;51.230;22.504;2023-02-23T19:36:52;14.57;;;8.18;;
32946;SDS011;54465;51.230;22.504;2023-02-23T19:41:52;17.05;;;8.38;;
32946;SDS011;54465;51.230;22.504;2023-02-23T19:46:53;12.45;;;7.47;;
32946;SDS011;54465;51.230;22.504;2023-02-23T19:51:54;15.02;;;7.95;;
32946;SDS011;54465;51.230;22.504;2023-02-23T19:56:54;12.68;;;7.88;;
32946;SDS011;54465;51.230;22.504;2023-02-23T20:01:55;11.38;;;7.47;;
32946;SDS011;54465;51.230;22.504;2023-02-23T20:06:55;13.00;;;7.30;;
32946;SDS011;54465;51.230;22.504;2023-02-23T20:11:56;14.85;;;8.00;;
32946;SDS011;54465;51.230;22.504;2023-02-23T20:16:57;17.17;;;8.65;;
32946;SDS011;54465;51.230;22.504;2023-02-23T20:21:58;14.18;;;8.85;;
32946;SDS011;54465;51.230;22.504;2023-02-23T20:26:58;14.65;;;8.90;;
32946;SDS011;54465;51.230;22.504;2023-02-23T20:32:00;13.80;;;8.23;;
32946;SDS011;54465;51.230;22.504;2023-02-23T20:37:01;11.30;;;8.10;;
32946;SDS011;54465;51.230;22.504;2023-02-23T20:42:03;14.20;;;7.93;;
32946;SDS011;54465;51.230;22.504;2023-02-23T20:47:03;12.80;;;7.80;;
32946;SDS011;54465;51.230;22.504;2023-02-23T20:52:08;14.40;;;7.57;;
32946;SDS011;54465;51.230;22.504;2023-02-23T20:57:11;15.20;;;8.25;;
32946;SDS011;54465;51.230;22.504;2023-02-23T21:02:11;12.18;;;7.07;;
32946;SDS011;54465;51.230;22.504;2023-02-23T21:07:14;12.20;;;7.65;;
32946;SDS011;54465;51.230;22.504;2023-02-23T21:12:14;10.70;;;7.35;;
32946;SDS011;54465;51.230;22.504;2023-02-23T21:17:15;12.27;;;7.78;;
32946;SDS011;54465;51.230;22.504;2023-02-23T21:22:15;12.20;;;7.28;;
32946;SDS011;54465;51.230;22.504;2023-02-23T21:27:16;13.40;;;7.63;;
32946;SDS011;54465;51.230;22.504;2023-02-23T21:32:16;12.00;;;6.85;;
32946;SDS011;54465;51.230;22.504;2023-02-23T21:37:17;14.20;;;7.60;;
32946;SDS011;54465;51.230;22.504;2023-02-23T21:42:17;12.65;;;7.28;;
32946;SDS011;54465;51.230;22.504;2023-02-23T21:47:20;13.55;;;7.50;;
32946;SDS011;54465;51.230;22.504;2023-02-23T21:52:21;12.40;;;7.80;;
32946;SDS011;54465;51.230;22.504;2023-02-23T21:57:21;11.63;;;7.38;;
32946;SDS011;54465;51.230;22.504;2023-02-23T22:02:22;12.40;;;7.43;;
32946;SDS011;54465;51.230;22.504;2023-02-23T22:07:22;12.27;;;7.47;;
32946;SDS011;54465;51.230;22.504;2023-02-23T22:12:23;11.82;;;7.13;;
32946;SDS011;54465;51.230;22.504;2023-02-23T22:17:26;12.88;;;7.30;;
32946;SDS011;54465;51.230;22.504;2023-02-23T22:22:26;12.18;;;6.95;;
32946;SDS011;54465;51.230;22.504;2023-02-23T22:27:27;10.98;;;7.13;;
32946;SDS011;54465;51.230;22.504;2023-02-23T22:32:28;12.50;;;7.13;;
32946;SDS011;54465;51.230;22.504;2023-02-23T22:37:31;16.58;;;8.05;;
32946;SDS011;54465;51.230;22.504;2023-02-23T22:42:32;12.48;;;7.03;;
32946;SDS011;54465;51.230;22.504;2023-02-23T22:47:34;11.43;;;7.30;;
32946;SDS011;54465;51.230;22.504;2023-02-23T22:52:35;13.30;;;7.30;;
32946;SDS011;54465;51.230;22.504;2023-02-23T22:57:35;13.20;;;7.15;;
32946;SDS011;54465;51.230;22.504;2023-02-23T23:02:36;15.30;;;8.30;;
32946;SDS011;54465;51.230;22.504;2023-02-23T23:07:37;15.82;;;7.43;;
32946;SDS011;54465;51.230;22.504;2023-02-23T23:12:37;13.38;;;8.10;;
32946;SDS011;54465;51.230;22.504;2023-02-23T23:17:39;14.93;;;8.82;;
32946;SDS011;54465;51.230;22.504;2023-02-23T23:22:50;12.45;;;7.53;;
32946;SDS011;54465;51.230;22.504;2023-02-23T23:27:51;13.98;;;7.93;;
32946;SDS011;54465;51.230;22.504;2023-02-23T23:32:52;13.25;;;7.53;;
32946;SDS011;54465;51.230;22.504;2023-02-23T23:37:52;13.75;;;8.13;;
32946;SDS011;54465;51.230;22.504;2023-02-23T23:42:53;12.30;;;7.50;;
32946;SDS011;54465;51.230;22.504;2023-02-23T23:47:54;13.20;;;8.05;;
32946;SDS011;54465;51.230;22.504;2023-02-23T23:52:55;13.63;;;8.40;;
32946;SDS011;54465;51.230;22.504;2023-02-23T23:57:56;14.95;;;7.75;;
